sensor_id;sensor_type;location;lat;lon;timestamp;P1;durP1;ratioP1;P2;durP2;ratioP2
7203;SDS011;3643;52.460;13.322;2024-02-21T00:01:41;17.33;;;6.00;;
7203;SDS011;3643;52.460;13.322;2024-02-21T00:04:09;16.97;;;5.40;;
7203;SDS011;3643;52.460;13.322;2024-02-21T00:06:37;17.13;;;5.50;;
7203;SDS011;3643;52.460;13.322;2024-02-21T00:09:05;21.50;;;6.33;;
7203;SDS011;3643;52.460;13.322;2024-02-21T00:11:35;16.13;;;5.67;;
7203;SDS011;3643;52.460;13.322;2024-02-21T00:14:04;14.20;;;6.20;;
7203;SDS011;3643;52.460;13.322;2024-02-21T00:16:33;21.97;;;5.37;;
7203;SDS011;3643;52.460;13.322;2024-02-21T00:19:01;15.73;;;5.73;;
7203;SDS011;3643;52.460;13.322;2024-02-21T00:21:29;14.80;;;5.47;;
7203;SDS011;3643;52.460;13.322;2024-02-21T00:23:57;12.03;;;5.43;;
7203;SDS011;3643;52.460;13.322;2024-02-21T00:26:25;14.90;;;5.73;;
7203;SDS011;3643;52.460;13.322;2024-02-21T00:28:53;17.37;;;5.10;;
7203;SDS011;3643;52.460;13.322;2024-02-21T00:31:22;21.67;;;6.17;;
7203;SDS011;3643;52.460;13.322;2024-02-21T00:33:51;20.97;;;6.80;;
7203;SDS011;3643;52.460;13.322;2024-02-21T00:36:19;18.30;;;5.37;;
7203;SDS011;3643;52.460;13.322;2024-02-21T00:38:47;16.30;;;5.80;;
7203;SDS011;3643;52.460;13.322;2024-02-21T00:41:15;15.50;;;5.27;;
7203;SDS011;3643;52.460;13.322;2024-02-21T00:43:43;16.27;;;5.23;;
7203;SDS011;3643;52.460;13.322;2024-02-21T00:46:11;12.47;;;4.77;;
7203;SDS011;3643;52.460;13.322;2024-02-21T00:48:39;16.37;;;5.63;;
7203;SDS011;3643;52.460;13.322;2024-02-21T00:51:09;18.53;;;5.47;;
7203;SDS011;3643;52.460;13.322;2024-02-21T00:53:37;14.30;;;5.27;;
7203;SDS011;3643;52.460;13.322;2024-02-21T00:56:05;17.60;;;5.07;;
7203;SDS011;3643;52.460;13.322;2024-02-21T00:58:33;21.37;;;5.57;;
7203;SDS011;3643;52.460;13.322;2024-02-21T01:01:02;21.23;;;6.23;;
7203;SDS011;3643;52.460;13.322;2024-02-21T01:03:30;19.90;;;4.70;;
7203;SDS011;3643;52.460;13.322;2024-02-21T01:05:58;12.80;;;5.17;;
7203;SDS011;3643;52.460;13.322;2024-02-21T01:08:27;14.57;;;5.23;;
7203;SDS011;3643;52.460;13.322;2024-02-21T01:10:55;20.13;;;5.67;;
7203;SDS011;3643;52.460;13.322;2024-02-21T01:13:24;14.03;;;5.13;;
7203;SDS011;3643;52.460;13.322;2024-02-21T01:15:52;17.93;;;5.47;;
7203;SDS011;3643;52.460;13.322;2024-02-21T01:18:20;11.00;;;4.67;;
7203;SDS011;3643;52.460;13.322;2024-02-21T01:20:48;15.90;;;4.63;;
7203;SDS011;3643;52.460;13.322;2024-02-21T01:23:16;16.43;;;5.30;;
7203;SDS011;3643;52.460;13.322;2024-02-21T01:25:45;13.10;;;4.97;;
7203;SDS011;3643;52.460;13.322;2024-02-21T01:28:13;19.40;;;4.63;;
7203;SDS011;3643;52.460;13.322;2024-02-21T01:30:41;16.00;;;5.37;;
7203;SDS011;3643;52.460;13.322;2024-02-21T01:33:09;12.37;;;4.40;;
7203;SDS011;3643;52.460;13.322;2024-02-21T01:35:37;14.53;;;4.67;;
7203;SDS011;3643;52.460;13.322;2024-02-21T01:38:06;16.80;;;4.90;;
7203;SDS011;3643;52.460;13.322;2024-02-21T01:40:34;16.23;;;4.97;;
7203;SDS011;3643;52.460;13.322;2024-02-21T01:43:14;16.43;;;5.13;;
7203;SDS011;3643;52.460;13.322;2024-02-21T01:45:43;16.53;;;4.77;;
7203;SDS011;3643;52.460;13.322;2024-02-21T01:48:14;14.40;;;4.77;;
7203;SDS011;3643;52.460;13.322;2024-02-21T01:50:43;15.37;;;4.77;;
7203;SDS011;3643;52.460;13.322;2024-02-21T01:53:12;11.10;;;4.30;;
7203;SDS011;3643;52.460;13.322;2024-02-21T01:55:44;17.13;;;5.03;;
7203;SDS011;3643;52.460;13.322;2024-02-21T01:58:14;16.57;;;4.67;;
7203;SDS011;3643;52.460;13.322;2024-02-21T02:00:43;17.87;;;5.20;;
7203;SDS011;3643;52.460;13.322;2024-02-21T02:03:12;11.90;;;4.93;;
7203;SDS011;3643;52.460;13.322;2024-02-21T02:05:43;9.27;;;4.40;;
7203;SDS011;3643;52.460;13.322;2024-02-21T02:08:12;19.97;;;5.97;;
7203;SDS011;3643;52.460;13.322;2024-02-21T02:10:41;16.90;;;4.77;;
7203;SDS011;3643;52.460;13.322;2024-02-21T02:13:10;14.37;;;5.00;;
7203;SDS011;3643;52.460;13.322;2024-02-21T02:15:40;14.10;;;4.43;;
7203;SDS011;3643;52.460;13.322;2024-02-21T02:18:09;12.87;;;4.33;;
7203;SDS011;3643;52.460;13.322;2024-02-21T02:20:38;14.07;;;4.43;;
7203;SDS011;3643;52.460;13.322;2024-02-21T02:23:07;13.37;;;4.83;;
7203;SDS011;3643;52.460;13.322;2024-02-21T02:25:39;15.70;;;5.00;;
7203;SDS011;3643;52.460;13.322;2024-02-21T02:28:07;13.70;;;4.60;;
7203;SDS011;3643;52.460;13.322;2024-02-21T02:30:35;18.63;;;5.73;;
7203;SDS011;3643;52.460;13.322;2024-02-21T02:33:03;15.80;;;5.10;;
7203;SDS011;3643;52.460;13.322;2024-02-21T02:35:32;11.83;;;4.90;;
7203;SDS011;3643;52.460;13.322;2024-02-21T02:38:01;17.00;;;5.07;;
7203;SDS011;3643;52.460;13.322;2024-02-21T02:40:30;16.17;;;4.80;;
7203;SDS011;3643;52.460;13.322;2024-02-21T02:43:00;15.30;;;5.70;;
7203;SDS011;3643;52.460;13.322;2024-02-21T02:45:28;11.20;;;4.73;;
7203;SDS011;3643;52.460;13.322;2024-02-21T02:47:57;15.40;;;5.30;;
7203;SDS011;3643;52.460;13.322;2024-02-21T02:50:26;25.47;;;6.10;;
7203;SDS011;3643;52.460;13.322;2024-02-21T02:52:54;15.63;;;5.33;;
7203;SDS011;3643;52.460;13.322;2024-02-21T02:55:23;21.47;;;6.33;;
7203;SDS011;3643;52.460;13.322;2024-02-21T02:57:52;16.47;;;5.23;;
7203;SDS011;3643;52.460;13.322;2024-02-21T03:00:21;23.40;;;5.53;;
7203;SDS011;3643;52.460;13.322;2024-02-21T03:02:50;13.37;;;4.87;;
7203;SDS011;3643;52.460;13.322;2024-02-21T03:05:18;17.47;;;5.67;;
7203;SDS011;3643;52.460;13.322;2024-02-21T03:07:47;20.27;;;6.10;;
7203;SDS011;3643;52.460;13.322;2024-02-21T03:10:16;17.03;;;5.80;;
7203;SDS011;3643;52.460;13.322;2024-02-21T03:12:45;17.47;;;5.10;;
7203;SDS011;3643;52.460;13.322;2024-02-21T03:15:13;28.90;;;6.77;;
7203;SDS011;3643;52.460;13.322;2024-02-21T03:17:43;12.73;;;5.03;;
7203;SDS011;3643;52.460;13.322;2024-02-21T03:20:11;15.13;;;5.87;;
7203;SDS011;3643;52.460;13.322;2024-02-21T03:22:40;16.07;;;5.87;;
7203;SDS011;3643;52.460;13.322;2024-02-21T03:25:08;16.27;;;6.00;;
7203;SDS011;3643;52.460;13.322;2024-02-21T03:27:37;23.93;;;7.20;;
7203;SDS011;3643;52.460;13.322;2024-02-21T03:30:05;22.30;;;6.93;;
7203;SDS011;3643;52.460;13.322;2024-02-21T03:32:34;15.37;;;6.13;;
7203;SDS011;3643;52.460;13.322;2024-02-21T03:35:04;12.57;;;5.77;;
7203;SDS011;3643;52.460;13.322;2024-02-21T03:37:32;28.73;;;6.70;;
7203;SDS011;3643;52.460;13.322;2024-02-21T03:40:01;15.97;;;6.23;;
7203;SDS011;3643;52.460;13.322;2024-02-21T03:42:31;16.83;;;6.40;;
7203;SDS011;3643;52.460;13.322;2024-02-21T03:44:59;19.70;;;6.57;;
7203;SDS011;3643;52.460;13.322;2024-02-21T03:47:27;18.10;;;6.73;;
7203;SDS011;3643;52.460;13.322;2024-02-21T03:49:55;21.00;;;6.53;;
7203;SDS011;3643;52.460;13.322;2024-02-21T03:52:26;20.90;;;7.33;;
7203;SDS011;3643;52.460;13.322;2024-02-21T03:54:54;19.47;;;6.27;;
7203;SDS011;3643;52.460;13.322;2024-02-21T03:57:22;20.33;;;7.93;;
7203;SDS011;3643;52.460;13.322;2024-02-21T03:59:50;24.20;;;7.73;;
7203;SDS011;3643;52.460;13.322;2024-02-21T04:02:18;20.20;;;7.60;;
7203;SDS011;3643;52.460;13.322;2024-02-21T04:04:46;23.83;;;7.40;;
7203;SDS011;3643;52.460;13.322;2024-02-21T04:07:15;25.50;;;7.80;;
7203;SDS011;3643;52.460;13.322;2024-02-21T04:09:45;16.37;;;6.30;;
7203;SDS011;3643;52.460;13.322;2024-02-21T04:12:13;25.97;;;8.17;;
7203;SDS011;3643;52.460;13.322;2024-02-21T04:14:41;30.90;;;8.37;;
7203;SDS011;3643;52.460;13.322;2024-02-21T04:17:12;32.73;;;8.87;;
7203;SDS011;3643;52.460;13.322;2024-02-21T04:19:41;32.73;;;9.00;;
7203;SDS011;3643;52.460;13.322;2024-02-21T04:22:09;20.33;;;8.23;;
7203;SDS011;3643;52.460;13.322;2024-02-21T04:24:37;23.23;;;8.20;;
7203;SDS011;3643;52.460;13.322;2024-02-21T04:27:07;33.57;;;7.97;;
7203;SDS011;3643;52.460;13.322;2024-02-21T04:29:35;26.60;;;8.03;;
7203;SDS011;3643;52.460;13.322;2024-02-21T04:32:03;28.17;;;8.17;;
7203;SDS011;3643;52.460;13.322;2024-02-21T04:34:32;28.20;;;8.37;;
7203;SDS011;3643;52.460;13.322;2024-02-21T04:37:01;29.43;;;8.80;;
7203;SDS011;3643;52.460;13.322;2024-02-21T04:39:29;40.77;;;8.30;;
7203;SDS011;3643;52.460;13.322;2024-02-21T04:41:57;27.57;;;8.97;;
7203;SDS011;3643;52.460;13.322;2024-02-21T04:44:26;33.00;;;10.20;;
7203;SDS011;3643;52.460;13.322;2024-02-21T04:46:55;34.90;;;9.40;;
7203;SDS011;3643;52.460;13.322;2024-02-21T04:49:23;46.87;;;9.90;;
7203;SDS011;3643;52.460;13.322;2024-02-21T04:51:52;28.77;;;9.13;;
7203;SDS011;3643;52.460;13.322;2024-02-21T04:54:20;29.63;;;9.37;;
7203;SDS011;3643;52.460;13.322;2024-02-21T04:56:48;23.17;;;7.47;;
7203;SDS011;3643;52.460;13.322;2024-02-21T04:59:19;25.53;;;9.40;;
7203;SDS011;3643;52.460;13.322;2024-02-21T05:01:48;33.83;;;10.07;;
7203;SDS011;3643;52.460;13.322;2024-02-21T05:04:17;26.20;;;8.83;;
7203;SDS011;3643;52.460;13.322;2024-02-21T05:06:45;31.23;;;9.27;;
7203;SDS011;3643;52.460;13.322;2024-02-21T05:09:13;24.63;;;8.90;;
7203;SDS011;3643;52.460;13.322;2024-02-21T05:11:42;26.10;;;9.70;;
7203;SDS011;3643;52.460;13.322;2024-02-21T05:14:10;22.83;;;8.53;;
7203;SDS011;3643;52.460;13.322;2024-02-21T05:16:38;29.23;;;9.47;;
7203;SDS011;3643;52.460;13.322;2024-02-21T05:19:08;27.10;;;8.70;;
7203;SDS011;3643;52.460;13.322;2024-02-21T05:21:37;32.70;;;9.83;;
7203;SDS011;3643;52.460;13.322;2024-02-21T05:24:05;26.43;;;8.87;;
7203;SDS011;3643;52.460;13.322;2024-02-21T05:26:33;33.73;;;8.73;;
7203;SDS011;3643;52.460;13.322;2024-02-21T05:29:01;33.53;;;9.43;;
7203;SDS011;3643;52.460;13.322;2024-02-21T05:31:42;31.87;;;9.23;;
7203;SDS011;3643;52.460;13.322;2024-02-21T05:34:24;30.97;;;9.93;;
7203;SDS011;3643;52.460;13.322;2024-02-21T05:36:53;27.87;;;8.33;;
7203;SDS011;3643;52.460;13.322;2024-02-21T05:39:21;34.53;;;10.40;;
7203;SDS011;3643;52.460;13.322;2024-02-21T05:41:50;34.63;;;10.57;;
7203;SDS011;3643;52.460;13.322;2024-02-21T05:44:18;25.93;;;9.37;;
7203;SDS011;3643;52.460;13.322;2024-02-21T05:46:48;31.57;;;9.20;;
7203;SDS011;3643;52.460;13.322;2024-02-21T05:49:17;34.87;;;10.53;;
7203;SDS011;3643;52.460;13.322;2024-02-21T05:51:47;38.90;;;11.80;;
7203;SDS011;3643;52.460;13.322;2024-02-21T05:54:15;43.70;;;10.93;;
7203;SDS011;3643;52.460;13.322;2024-02-21T05:56:46;39.77;;;11.00;;
7203;SDS011;3643;52.460;13.322;2024-02-21T05:59:14;36.53;;;10.57;;
7203;SDS011;3643;52.460;13.322;2024-02-21T06:01:42;31.10;;;9.80;;
7203;SDS011;3643;52.460;13.322;2024-02-21T06:04:11;34.23;;;9.83;;
7203;SDS011;3643;52.460;13.322;2024-02-21T06:06:39;48.30;;;11.53;;
7203;SDS011;3643;52.460;13.322;2024-02-21T06:09:09;37.53;;;10.17;;
7203;SDS011;3643;52.460;13.322;2024-02-21T06:11:37;36.83;;;12.00;;
7203;SDS011;3643;52.460;13.322;2024-02-21T06:14:07;32.80;;;9.63;;
7203;SDS011;3643;52.460;13.322;2024-02-21T06:16:35;34.87;;;10.43;;
7203;SDS011;3643;52.460;13.322;2024-02-21T06:19:03;44.60;;;11.40;;
7203;SDS011;3643;52.460;13.322;2024-02-21T06:21:35;41.93;;;12.00;;
7203;SDS011;3643;52.460;13.322;2024-02-21T06:24:04;39.83;;;11.60;;
7203;SDS011;3643;52.460;13.322;2024-02-21T06:26:34;45.30;;;11.93;;
7203;SDS011;3643;52.460;13.322;2024-02-21T06:29:02;41.03;;;12.03;;
7203;SDS011;3643;52.460;13.322;2024-02-21T06:31:30;33.83;;;11.40;;
7203;SDS011;3643;52.460;13.322;2024-02-21T06:33:59;42.60;;;12.33;;
7203;SDS011;3643;52.460;13.322;2024-02-21T06:36:27;40.40;;;12.30;;
7203;SDS011;3643;52.460;13.322;2024-02-21T06:38:56;38.40;;;12.13;;
7203;SDS011;3643;52.460;13.322;2024-02-21T06:41:24;44.53;;;12.50;;
7203;SDS011;3643;52.460;13.322;2024-02-21T06:43:54;33.33;;;11.73;;
7203;SDS011;3643;52.460;13.322;2024-02-21T06:46:23;42.23;;;12.10;;
7203;SDS011;3643;52.460;13.322;2024-02-21T06:48:52;37.77;;;12.07;;
7203;SDS011;3643;52.460;13.322;2024-02-21T06:51:21;47.43;;;13.40;;
7203;SDS011;3643;52.460;13.322;2024-02-21T06:53:49;37.57;;;12.13;;
7203;SDS011;3643;52.460;13.322;2024-02-21T06:56:18;36.70;;;12.40;;
7203;SDS011;3643;52.460;13.322;2024-02-21T06:58:46;51.10;;;13.20;;
7203;SDS011;3643;52.460;13.322;2024-02-21T07:01:16;50.10;;;12.67;;
7203;SDS011;3643;52.460;13.322;2024-02-21T07:03:44;36.30;;;12.63;;
7203;SDS011;3643;52.460;13.322;2024-02-21T07:06:12;48.37;;;12.33;;
7203;SDS011;3643;52.460;13.322;2024-02-21T07:08:41;36.53;;;12.23;;
7203;SDS011;3643;52.460;13.322;2024-02-21T07:11:10;41.27;;;12.20;;
7203;SDS011;3643;52.460;13.322;2024-02-21T07:13:39;43.43;;;12.80;;
7203;SDS011;3643;52.460;13.322;2024-02-21T07:16:07;44.87;;;12.60;;
7203;SDS011;3643;52.460;13.322;2024-02-21T07:18:37;40.03;;;12.63;;
7203;SDS011;3643;52.460;13.322;2024-02-21T07:21:05;44.53;;;12.70;;
7203;SDS011;3643;52.460;13.322;2024-02-21T07:23:34;34.73;;;12.63;;
7203;SDS011;3643;52.460;13.322;2024-02-21T07:26:03;33.63;;;11.23;;
7203;SDS011;3643;52.460;13.322;2024-02-21T07:28:32;35.13;;;11.27;;
7203;SDS011;3643;52.460;13.322;2024-02-21T07:31:01;46.87;;;12.07;;
7203;SDS011;3643;52.460;13.322;2024-02-21T07:33:29;43.97;;;11.23;;
7203;SDS011;3643;52.460;13.322;2024-02-21T07:36:00;41.13;;;11.83;;
7203;SDS011;3643;52.460;13.322;2024-02-21T07:38:28;37.47;;;12.27;;
7203;SDS011;3643;52.460;13.322;2024-02-21T07:40:56;33.97;;;11.00;;
7203;SDS011;3643;52.460;13.322;2024-02-21T07:43:25;43.73;;;11.07;;
7203;SDS011;3643;52.460;13.322;2024-02-21T07:45:54;29.37;;;10.17;;
7203;SDS011;3643;52.460;13.322;2024-02-21T07:48:22;30.43;;;10.07;;
7203;SDS011;3643;52.460;13.322;2024-02-21T07:50:53;35.03;;;10.37;;
7203;SDS011;3643;52.460;13.322;2024-02-21T07:53:23;19.33;;;8.70;;
7203;SDS011;3643;52.460;13.322;2024-02-21T07:55:51;27.87;;;10.37;;
7203;SDS011;3643;52.460;13.322;2024-02-21T07:58:19;26.13;;;9.47;;
7203;SDS011;3643;52.460;13.322;2024-02-21T08:00:47;35.73;;;9.73;;
7203;SDS011;3643;52.460;13.322;2024-02-21T08:03:16;28.30;;;9.60;;
7203;SDS011;3643;52.460;13.322;2024-02-21T08:05:44;30.57;;;9.10;;
7203;SDS011;3643;52.460;13.322;2024-02-21T08:08:13;31.27;;;9.50;;
7203;SDS011;3643;52.460;13.322;2024-02-21T08:10:46;22.30;;;8.23;;
7203;SDS011;3643;52.460;13.322;2024-02-21T08:13:14;24.63;;;9.57;;
7203;SDS011;3643;52.460;13.322;2024-02-21T08:15:42;29.67;;;10.33;;
7203;SDS011;3643;52.460;13.322;2024-02-21T08:18:10;28.93;;;9.73;;
7203;SDS011;3643;52.460;13.322;2024-02-21T08:20:39;25.30;;;8.93;;
7203;SDS011;3643;52.460;13.322;2024-02-21T08:23:07;27.93;;;8.70;;
7203;SDS011;3643;52.460;13.322;2024-02-21T08:25:35;25.80;;;9.40;;
7203;SDS011;3643;52.460;13.322;2024-02-21T08:28:05;32.63;;;11.17;;
7203;SDS011;3643;52.460;13.322;2024-02-21T08:30:34;18.27;;;8.63;;
7203;SDS011;3643;52.460;13.322;2024-02-21T08:33:02;31.47;;;10.97;;
7203;SDS011;3643;52.460;13.322;2024-02-21T08:35:31;26.80;;;9.80;;
7203;SDS011;3643;52.460;13.322;2024-02-21T08:37:59;32.30;;;10.53;;
7203;SDS011;3643;52.460;13.322;2024-02-21T08:40:27;29.93;;;10.33;;
7203;SDS011;3643;52.460;13.322;2024-02-21T08:42:56;35.50;;;11.60;;
7203;SDS011;3643;52.460;13.322;2024-02-21T08:45:25;21.83;;;12.10;;
7203;SDS011;3643;52.460;13.322;2024-02-21T08:47:53;20.90;;;9.40;;
7203;SDS011;3643;52.460;13.322;2024-02-21T08:50:21;32.00;;;12.13;;
7203;SDS011;3643;52.460;13.322;2024-02-21T08:52:55;25.63;;;9.77;;
7203;SDS011;3643;52.460;13.322;2024-02-21T08:55:23;22.97;;;10.83;;
7203;SDS011;3643;52.460;13.322;2024-02-21T08:57:52;23.17;;;10.03;;
7203;SDS011;3643;52.460;13.322;2024-02-21T09:00:20;32.23;;;11.43;;
7203;SDS011;3643;52.460;13.322;2024-02-21T09:02:55;20.77;;;11.63;;
7203;SDS011;3643;52.460;13.322;2024-02-21T09:05:23;23.80;;;10.57;;
7203;SDS011;3643;52.460;13.322;2024-02-21T09:07:52;25.70;;;9.80;;
7203;SDS011;3643;52.460;13.322;2024-02-21T09:10:21;27.90;;;10.17;;
7203;SDS011;3643;52.460;13.322;2024-02-21T09:12:49;25.70;;;10.53;;
7203;SDS011;3643;52.460;13.322;2024-02-21T09:15:17;24.63;;;10.13;;
7203;SDS011;3643;52.460;13.322;2024-02-21T09:17:46;19.70;;;9.57;;
7203;SDS011;3643;52.460;13.322;2024-02-21T09:20:15;29.40;;;11.63;;
7203;SDS011;3643;52.460;13.322;2024-02-21T09:22:44;26.53;;;10.40;;
7203;SDS011;3643;52.460;13.322;2024-02-21T09:25:12;24.10;;;10.63;;
7203;SDS011;3643;52.460;13.322;2024-02-21T09:27:43;16.57;;;9.43;;
7203;SDS011;3643;52.460;13.322;2024-02-21T09:30:12;21.87;;;11.27;;
7203;SDS011;3643;52.460;13.322;2024-02-21T09:32:41;22.17;;;10.90;;
7203;SDS011;3643;52.460;13.322;2024-02-21T09:35:09;16.87;;;10.13;;
7203;SDS011;3643;52.460;13.322;2024-02-21T09:37:40;20.80;;;10.37;;
7203;SDS011;3643;52.460;13.322;2024-02-21T09:40:09;19.37;;;9.40;;
7203;SDS011;3643;52.460;13.322;2024-02-21T09:42:38;19.30;;;10.10;;
7203;SDS011;3643;52.460;13.322;2024-02-21T09:45:07;18.87;;;10.23;;
7203;SDS011;3643;52.460;13.322;2024-02-21T09:47:44;21.87;;;11.43;;
7203;SDS011;3643;52.460;13.322;2024-02-21T09:50:28;19.00;;;11.17;;
7203;SDS011;3643;52.460;13.322;2024-02-21T09:53:00;19.40;;;9.40;;
7203;SDS011;3643;52.460;13.322;2024-02-21T09:55:30;20.47;;;9.23;;
7203;SDS011;3643;52.460;13.322;2024-02-21T09:58:01;17.27;;;8.73;;
7203;SDS011;3643;52.460;13.322;2024-02-21T10:00:32;15.60;;;8.30;;
7203;SDS011;3643;52.460;13.322;2024-02-21T10:03:03;15.27;;;7.77;;
7203;SDS011;3643;52.460;13.322;2024-02-21T10:05:36;14.77;;;7.47;;
7203;SDS011;3643;52.460;13.322;2024-02-21T10:08:07;16.67;;;7.80;;
7203;SDS011;3643;52.460;13.322;2024-02-21T10:10:42;19.10;;;8.53;;
7203;SDS011;3643;52.460;13.322;2024-02-21T10:13:23;14.87;;;7.87;;
7203;SDS011;3643;52.460;13.322;2024-02-21T10:16:03;15.17;;;7.57;;
7203;SDS011;3643;52.460;13.322;2024-02-21T10:18:33;13.00;;;7.57;;
7203;SDS011;3643;52.460;13.322;2024-02-21T10:21:02;14.60;;;7.43;;
7203;SDS011;3643;52.460;13.322;2024-02-21T10:23:43;12.97;;;7.30;;
7203;SDS011;3643;52.460;13.322;2024-02-21T10:26:12;13.90;;;6.93;;
7203;SDS011;3643;52.460;13.322;2024-02-21T10:28:40;15.33;;;8.47;;
7203;SDS011;3643;52.460;13.322;2024-02-21T10:31:11;14.57;;;7.67;;
7203;SDS011;3643;52.460;13.322;2024-02-21T10:33:53;10.07;;;6.93;;
7203;SDS011;3643;52.460;13.322;2024-02-21T10:36:23;14.13;;;7.13;;
7203;SDS011;3643;52.460;13.322;2024-02-21T10:38:54;15.23;;;7.30;;
7203;SDS011;3643;52.460;13.322;2024-02-21T10:41:23;15.40;;;7.87;;
7203;SDS011;3643;52.460;13.322;2024-02-21T10:43:54;13.97;;;7.00;;
7203;SDS011;3643;52.460;13.322;2024-02-21T10:46:24;11.83;;;6.50;;
7203;SDS011;3643;52.460;13.322;2024-02-21T10:48:56;11.63;;;6.57;;
7203;SDS011;3643;52.460;13.322;2024-02-21T10:51:34;12.60;;;6.93;;
7203;SDS011;3643;52.460;13.322;2024-02-21T10:54:11;10.97;;;7.27;;
7203;SDS011;3643;52.460;13.322;2024-02-21T10:56:51;11.20;;;6.63;;
7203;SDS011;3643;52.460;13.322;2024-02-21T10:59:20;13.50;;;7.37;;
7203;SDS011;3643;52.460;13.322;2024-02-21T11:01:49;10.53;;;6.80;;
7203;SDS011;3643;52.460;13.322;2024-02-21T11:04:24;14.07;;;6.73;;
7203;SDS011;3643;52.460;13.322;2024-02-21T11:06:54;12.47;;;6.87;;
7203;SDS011;3643;52.460;13.322;2024-02-21T11:09:30;9.17;;;6.07;;
7203;SDS011;3643;52.460;13.322;2024-02-21T11:12:01;10.90;;;6.70;;
7203;SDS011;3643;52.460;13.322;2024-02-21T11:14:31;10.90;;;6.80;;
7203;SDS011;3643;52.460;13.322;2024-02-21T11:17:02;10.33;;;5.47;;
7203;SDS011;3643;52.460;13.322;2024-02-21T11:19:31;11.57;;;6.43;;
7203;SDS011;3643;52.460;13.322;2024-02-21T11:21:59;9.57;;;6.30;;
7203;SDS011;3643;52.460;13.322;2024-02-21T11:24:32;9.83;;;5.90;;
7203;SDS011;3643;52.460;13.322;2024-02-21T11:27:11;9.07;;;5.57;;
7203;SDS011;3643;52.460;13.322;2024-02-21T11:29:40;17.53;;;6.43;;
7203;SDS011;3643;52.460;13.322;2024-02-21T11:32:10;17.00;;;9.60;;
7203;SDS011;3643;52.460;13.322;2024-02-21T11:34:40;11.07;;;6.60;;
7203;SDS011;3643;52.460;13.322;2024-02-21T11:37:14;13.93;;;8.73;;
7203;SDS011;3643;52.460;13.322;2024-02-21T11:39:45;8.93;;;6.03;;
7203;SDS011;3643;52.460;13.322;2024-02-21T11:42:13;14.77;;;7.40;;
7203;SDS011;3643;52.460;13.322;2024-02-21T11:44:41;11.20;;;5.80;;
7203;SDS011;3643;52.460;13.322;2024-02-21T11:47:09;8.77;;;5.33;;
7203;SDS011;3643;52.460;13.322;2024-02-21T11:49:38;10.63;;;5.50;;
7203;SDS011;3643;52.460;13.322;2024-02-21T11:52:12;9.43;;;5.97;;
7203;SDS011;3643;52.460;13.322;2024-02-21T11:54:42;10.10;;;5.60;;
7203;SDS011;3643;52.460;13.322;2024-02-21T11:57:11;10.23;;;5.50;;
7203;SDS011;3643;52.460;13.322;2024-02-21T11:59:40;11.23;;;5.77;;
7203;SDS011;3643;52.460;13.322;2024-02-21T12:02:08;8.57;;;5.23;;
7203;SDS011;3643;52.460;13.322;2024-02-21T12:04:37;8.53;;;5.30;;
7203;SDS011;3643;52.460;13.322;2024-02-21T12:07:06;11.10;;;4.93;;
7203;SDS011;3643;52.460;13.322;2024-02-21T12:09:35;6.03;;;4.23;;
7203;SDS011;3643;52.460;13.322;2024-02-21T12:12:03;8.07;;;4.70;;
7203;SDS011;3643;52.460;13.322;2024-02-21T12:14:34;8.17;;;4.13;;
7203;SDS011;3643;52.460;13.322;2024-02-21T12:17:04;7.90;;;3.90;;
7203;SDS011;3643;52.460;13.322;2024-02-21T12:19:32;10.43;;;4.50;;
7203;SDS011;3643;52.460;13.322;2024-02-21T12:22:01;13.27;;;7.47;;
7203;SDS011;3643;52.460;13.322;2024-02-21T12:24:32;8.87;;;5.97;;
7203;SDS011;3643;52.460;13.322;2024-02-21T12:27:02;8.43;;;4.97;;
7203;SDS011;3643;52.460;13.322;2024-02-21T12:29:32;7.37;;;4.53;;
7203;SDS011;3643;52.460;13.322;2024-02-21T12:32:01;15.43;;;9.77;;
7203;SDS011;3643;52.460;13.322;2024-02-21T12:34:31;11.03;;;6.30;;
7203;SDS011;3643;52.460;13.322;2024-02-21T12:37:18;23.10;;;12.70;;
7203;SDS011;3643;52.460;13.322;2024-02-21T12:39:47;7.97;;;4.17;;
7203;SDS011;3643;52.460;13.322;2024-02-21T12:42:15;11.00;;;6.93;;
7203;SDS011;3643;52.460;13.322;2024-02-21T12:44:44;10.57;;;5.77;;
7203;SDS011;3643;52.460;13.322;2024-02-21T12:47:14;6.50;;;4.43;;
7203;SDS011;3643;52.460;13.322;2024-02-21T12:49:42;8.20;;;4.13;;
7203;SDS011;3643;52.460;13.322;2024-02-21T12:52:12;7.73;;;4.30;;
7203;SDS011;3643;52.460;13.322;2024-02-21T12:54:40;9.33;;;6.27;;
7203;SDS011;3643;52.460;13.322;2024-02-21T12:57:09;17.57;;;10.57;;
7203;SDS011;3643;52.460;13.322;2024-02-21T12:59:37;43.50;;;27.23;;
7203;SDS011;3643;52.460;13.322;2024-02-21T13:02:05;16.80;;;8.70;;
7203;SDS011;3643;52.460;13.322;2024-02-21T13:04:36;6.37;;;4.57;;
7203;SDS011;3643;52.460;13.322;2024-02-21T13:07:07;8.83;;;4.33;;
7203;SDS011;3643;52.460;13.322;2024-02-21T13:09:35;9.70;;;5.17;;
7203;SDS011;3643;52.460;13.322;2024-02-21T13:12:04;9.60;;;3.67;;
7203;SDS011;3643;52.460;13.322;2024-02-21T13:14:33;7.93;;;3.70;;
7203;SDS011;3643;52.460;13.322;2024-02-21T13:17:03;7.57;;;4.67;;
7203;SDS011;3643;52.460;13.322;2024-02-21T13:19:31;8.40;;;4.00;;
7203;SDS011;3643;52.460;13.322;2024-02-21T13:22:01;8.07;;;4.33;;
7203;SDS011;3643;52.460;13.322;2024-02-21T13:24:29;8.67;;;4.10;;
7203;SDS011;3643;52.460;13.322;2024-02-21T13:26:58;5.87;;;3.33;;
7203;SDS011;3643;52.460;13.322;2024-02-21T13:29:26;7.13;;;3.13;;
7203;SDS011;3643;52.460;13.322;2024-02-21T13:31:54;11.27;;;4.40;;
7203;SDS011;3643;52.460;13.322;2024-02-21T13:34:23;5.83;;;3.47;;
7203;SDS011;3643;52.460;13.322;2024-02-21T13:36:52;8.73;;;3.80;;
7203;SDS011;3643;52.460;13.322;2024-02-21T13:39:21;7.40;;;4.43;;
7203;SDS011;3643;52.460;13.322;2024-02-21T13:41:50;6.53;;;3.73;;
7203;SDS011;3643;52.460;13.322;2024-02-21T13:44:18;7.60;;;3.73;;
7203;SDS011;3643;52.460;13.322;2024-02-21T13:46:46;8.00;;;3.30;;
7203;SDS011;3643;52.460;13.322;2024-02-21T13:49:15;6.77;;;3.57;;
7203;SDS011;3643;52.460;13.322;2024-02-21T13:51:43;9.43;;;3.57;;
7203;SDS011;3643;52.460;13.322;2024-02-21T13:54:12;6.23;;;3.40;;
7203;SDS011;3643;52.460;13.322;2024-02-21T13:56:47;5.17;;;3.03;;
7203;SDS011;3643;52.460;13.322;2024-02-21T13:59:15;8.27;;;3.00;;
7203;SDS011;3643;52.460;13.322;2024-02-21T14:01:44;7.37;;;3.37;;
7203;SDS011;3643;52.460;13.322;2024-02-21T14:04:13;9.30;;;3.77;;
7203;SDS011;3643;52.460;13.322;2024-02-21T14:06:41;5.43;;;3.37;;
7203;SDS011;3643;52.460;13.322;2024-02-21T14:09:10;5.33;;;3.20;;
7203;SDS011;3643;52.460;13.322;2024-02-21T14:14:08;6.90;;;3.50;;
7203;SDS011;3643;52.460;13.322;2024-02-21T14:16:36;7.17;;;3.10;;
7203;SDS011;3643;52.460;13.322;2024-02-21T14:19:04;5.97;;;3.40;;
7203;SDS011;3643;52.460;13.322;2024-02-21T14:21:33;6.77;;;3.70;;
7203;SDS011;3643;52.460;13.322;2024-02-21T14:24:03;8.23;;;3.77;;
7203;SDS011;3643;52.460;13.322;2024-02-21T14:26:31;6.43;;;3.60;;
7203;SDS011;3643;52.460;13.322;2024-02-21T14:28:59;9.10;;;3.90;;
7203;SDS011;3643;52.460;13.322;2024-02-21T14:31:30;6.30;;;3.20;;
7203;SDS011;3643;52.460;13.322;2024-02-21T14:33:59;7.20;;;3.77;;
7203;SDS011;3643;52.460;13.322;2024-02-21T14:36:28;8.23;;;3.97;;
7203;SDS011;3643;52.460;13.322;2024-02-21T14:38:56;6.47;;;3.03;;
7203;SDS011;3643;52.460;13.322;2024-02-21T14:41:25;6.00;;;3.77;;
7203;SDS011;3643;52.460;13.322;2024-02-21T14:43:53;8.20;;;3.13;;
7203;SDS011;3643;52.460;13.322;2024-02-21T14:46:23;12.90;;;3.93;;
7203;SDS011;3643;52.460;13.322;2024-02-21T14:48:53;6.47;;;3.63;;
7203;SDS011;3643;52.460;13.322;2024-02-21T14:51:21;8.50;;;3.60;;
7203;SDS011;3643;52.460;13.322;2024-02-21T14:53:49;7.23;;;3.47;;
7203;SDS011;3643;52.460;13.322;2024-02-21T14:56:17;5.67;;;3.10;;
7203;SDS011;3643;52.460;13.322;2024-02-21T14:58:45;6.23;;;2.93;;
7203;SDS011;3643;52.460;13.322;2024-02-21T15:01:17;6.80;;;3.03;;
7203;SDS011;3643;52.460;13.322;2024-02-21T15:03:45;30.20;;;18.53;;